Time;durP1;ratioP1;P1;durP2;ratioP2;P2;SDS_P1;SDS_P2;PMS_P1;PMS_P2;Temp;Humidity;BMP_temperature;BMP_pressure;BME280_temperature;BME280_humidity;BME280_pressure;Samples;Min_cycle;Max_cycle;Signal;HPM_P1;HPM_P2
2020/12/24 00:00:19;;;;;;;10.27;7.83;;;11.30;99.90;;;;;;5003306;28;20549;-54
2020/12/24 00:02:46;;;;;;;12.10;7.90;;;11.30;99.90;;;;;;5002623;28;21029;-51
2020/12/24 00:05:13;;;;;;;12.03;8.10;;;11.40;99.90;;;;;;5002630;28;20446;-55
2020/12/24 00:07:40;;;;;;;10.20;7.43;;;11.40;99.90;;;;;;5003209;28;20450;-54
2020/12/24 00:10:10;;;;;;;10.33;7.33;;;11.40;99.90;;;;;;5003353;28;20446;-55
2020/12/24 00:12:37;;;;;;;13.27;7.57;;;11.40;99.90;;;;;;5003890;28;20446;-55
2020/12/24 00:15:04;;;;;;;9.80;7.63;;;11.50;99.90;;;;;;5002905;28;20540;-55
2020/12/24 00:17:30;;;;;;;11.30;8.07;;;11.50;99.90;;;;;;5002658;28;20469;-57
2020/12/24 00:19:57;;;;;;;9.93;6.60;;;11.50;99.90;;;;;;5003092;28;20537;-52
2020/12/24 00:22:23;;;;;;;6.40;5.10;;;11.50;99.90;;;;;;5003010;28;20513;-54
2020/12/24 00:24:50;;;;;;;7.70;5.60;;;11.60;99.90;;;;;;5003922;28;20450;-54
2020/12/24 00:27:17;;;;;;;11.03;6.83;;;11.60;99.90;;;;;;5003266;28;20500;-57
2020/12/24 00:29:43;;;;;;;7.43;5.73;;;11.50;99.90;;;;;;5004027;28;20477;-55
2020/12/24 00:32:10;;;;;;;5.93;4.87;;;11.50;99.90;;;;;;5003689;28;20446;-57
2020/12/24 00:34:36;;;;;;;6.77;4.40;;;11.50;99.90;;;;;;5003529;28;20532;-51
2020/12/24 00:37:02;;;;;;;3.77;3.23;;;11.50;99.90;;;;;;5002250;28;20488;-56
2020/12/24 00:39:29;;;;;;;5.40;4.40;;;11.60;99.90;;;;;;5002927;28;20904;-55
2020/12/24 00:41:56;;;;;;;5.20;3.70;;;11.60;99.90;;;;;;5003161;28;21007;-55
2020/12/24 00:44:23;;;;;;;4.97;3.17;;;11.60;99.90;;;;;;5003123;28;20544;-56
2020/12/24 00:46:49;;;;;;;5.43;3.43;;;11.60;99.90;;;;;;5003080;28;20504;-55
2020/12/24 00:49:16;;;;;;;4.03;3.63;;;11.70;99.90;;;;;;5002798;28;20457;-56
2020/12/24 00:51:42;;;;;;;4.47;3.27;;;11.70;99.90;;;;;;5003530;28;20885;-52
2020/12/24 00:54:09;;;;;;;12.17;3.80;;;11.70;99.90;;;;;;5002992;28;20532;-54
2020/12/24 00:56:35;;;;;;;3.70;2.90;;;11.70;99.90;;;;;;5002917;28;20867;-52
2020/12/24 00:59:03;;;;;;;3.67;2.70;;;11.70;99.90;;;;;;5002725;28;20496;-56
2020/12/24 01:01:29;;;;;;;4.67;3.30;;;11.70;99.90;;;;;;5002777;28;20473;-55
2020/12/24 01:03:56;;;;;;;4.30;2.70;;;11.70;99.90;;;;;;5002378;28;20556;-49
2020/12/24 01:06:22;;;;;;;3.33;2.67;;;11.60;99.90;;;;;;5003047;28;20452;-49
2020/12/24 01:08:48;;;;;;;4.90;2.90;;;11.60;99.90;;;;;;5003060;28;20503;-51
2020/12/24 01:11:15;;;;;;;3.80;2.70;;;11.50;99.90;;;;;;5002835;28;20496;-51
2020/12/24 01:13:41;;;;;;;2.63;2.13;;;11.50;99.90;;;;;;5003497;28;20533;-51
2020/12/24 01:16:09;;;;;;;8.50;2.97;;;11.50;99.90;;;;;;5002954;28;20584;-53
2020/12/24 01:18:35;;;;;;;5.17;3.67;;;11.50;99.90;;;;;;5001844;28;20489;-51
2020/12/24 01:21:01;;;;;;;3.73;2.67;;;11.50;99.90;;;;;;5001852;28;20469;-53
2020/12/24 01:23:30;;;;;;;2.73;2.53;;;11.50;99.90;;;;;;5002507;28;20480;-51
2020/12/24 01:25:56;;;;;;;4.20;3.07;;;11.50;99.90;;;;;;5001759;28;20496;-54
2020/12/24 01:28:22;;;;;;;3.70;2.40;;;11.40;99.90;;;;;;5001569;28;20536;-55
2020/12/24 01:30:49;;;;;;;2.30;1.67;;;11.40;99.90;;;;;;5001961;28;20508;-56
2020/12/24 01:33:16;;;;;;;1.97;1.77;;;11.40;99.90;;;;;;5002012;28;20508;-54
2020/12/24 01:35:42;;;;;;;2.83;1.93;;;11.50;99.90;;;;;;5002378;28;20525;-51
2020/12/24 01:38:09;;;;;;;3.60;2.70;;;11.50;99.90;;;;;;5002368;28;20481;-55
2020/12/24 01:40:35;;;;;;;2.83;2.30;;;11.40;99.90;;;;;;5001972;28;20505;-55
2020/12/24 01:43:02;;;;;;;5.50;2.97;;;11.50;99.90;;;;;;5002587;28;20847;-53
2020/12/24 01:45:28;;;;;;;2.83;2.20;;;11.50;99.90;;;;;;5002592;28;20519;-53
2020/12/24 01:47:54;;;;;;;4.87;2.07;;;11.50;99.90;;;;;;5001204;28;20461;-54
2020/12/24 01:50:22;;;;;;;2.43;1.90;;;11.40;99.90;;;;;;5002066;28;20493;-55
2020/12/24 01:52:50;;;;;;;2.93;1.73;;;11.40;99.90;;;;;;5002416;28;20492;-52
2020/12/24 01:55:16;;;;;;;2.60;2.30;;;11.40;99.90;;;;;;5001930;28;20461;-55
2020/12/24 01:57:43;;;;;;;3.40;1.87;;;11.40;99.90;;;;;;5002603;28;20533;-53
2020/12/24 02:00:11;;;;;;;3.20;2.80;;;11.30;99.90;;;;;;5001659;28;20488;-57
2020/12/24 02:02:37;;;;;;;2.60;2.10;;;11.30;99.90;;;;;;5002081;28;20505;-55
2020/12/24 02:05:05;;;;;;;2.87;2.63;;;11.30;99.90;;;;;;5002115;28;20481;-56
2020/12/24 02:07:33;;;;;;;2.33;1.97;;;11.20;99.90;;;;;;5001672;28;20474;-50
2020/12/24 02:10:00;;;;;;;3.70;1.87;;;11.20;99.90;;;;;;5001678;28;20478;-55
2020/12/24 02:12:26;;;;;;;4.43;2.53;;;11.20;99.90;;;;;;5001850;28;20967;-53
2020/12/24 02:14:52;;;;;;;2.50;2.30;;;11.10;99.90;;;;;;5002046;28;20457;-56
2020/12/24 02:17:19;;;;;;;6.80;3.10;;;11.10;99.90;;;;;;5001681;28;20501;-52
2020/12/24 02:19:45;;;;;;;2.53;2.30;;;11.10;99.90;;;;;;5001893;28;21046;-55
2020/12/24 02:22:14;;;;;;;2.30;2.07;;;11.10;99.90;;;;;;5001987;28;20446;-57
2020/12/24 02:24:41;;;;;;;2.53;2.00;;;11.10;99.90;;;;;;5002802;28;20458;-55
2020/12/24 02:27:08;;;;;;;3.60;2.90;;;11.10;99.90;;;;;;5002471;28;20561;-56
2020/12/24 02:29:34;;;;;;;3.33;2.37;;;11.10;99.90;;;;;;5001964;28;20485;-49
2020/12/24 02:32:01;;;;;;;2.97;2.53;;;11.10;99.90;;;;;;5001967;28;20464;-49
2020/12/24 02:34:27;;;;;;;2.87;2.60;;;11.10;99.90;;;;;;5002083;28;20545;-52
2020/12/24 02:36:53;;;;;;;2.43;2.23;;;11.00;99.90;;;;;;5002199;28;20556;-50
2020/12/24 02:39:21;;;;;;;4.50;2.70;;;11.00;99.90;;;;;;5001570;28;20561;-55
2020/12/24 02:41:47;;;;;;;3.37;3.00;;;11.00;99.90;;;;;;5000665;28;20509;-54
2020/12/24 02:44:13;;;;;;;5.33;2.20;;;11.00;99.90;;;;;;5001642;28;20587;-58
2020/12/24 02:46:42;;;;;;;5.90;3.10;;;11.00;99.90;;;;;;5000646;28;20504;-55
2020/12/24 02:49:08;;;;;;;3.60;2.67;;;11.00;99.90;;;;;;5001376;28;20458;-54
2020/12/24 02:51:35;;;;;;;4.40;2.40;;;11.00;99.90;;;;;;5001558;28;20473;-54
2020/12/24 02:54:01;;;;;;;4.60;2.17;;;11.00;99.90;;;;;;5001894;28;20493;-53
2020/12/24 02:56:28;;;;;;;3.00;2.10;;;11.10;99.90;;;;;;5001015;28;20538;-55
2020/12/24 02:58:55;;;;;;;3.70;3.20;;;11.10;99.90;;;;;;5001383;28;20478;-56
2020/12/24 03:01:21;;;;;;;9.70;3.07;;;11.10;99.90;;;;;;5005282;28;20473;-55
2020/12/24 03:03:48;;;;;;;2.97;2.67;;;11.20;99.90;;;;;;5005842;28;20962;-55
2020/12/24 03:06:14;;;;;;;3.90;3.07;;;11.10;99.90;;;;;;5005016;28;20513;-53
2020/12/24 03:08:40;;;;;;;3.13;2.50;;;11.10;99.90;;;;;;5005270;28;20826;-53
2020/12/24 03:11:07;;;;;;;2.30;2.10;;;11.10;99.90;;;;;;5005295;28;20513;-52
2020/12/24 03:13:34;;;;;;;3.13;2.63;;;11.10;99.90;;;;;;5005268;28;20536;-56
2020/12/24 03:16:00;;;;;;;3.53;2.93;;;11.10;99.90;;;;;;5005196;28;20879;-56
2020/12/24 03:18:27;;;;;;;4.80;3.03;;;11.10;99.90;;;;;;5005062;28;20544;-54
2020/12/24 03:20:53;;;;;;;2.50;2.30;;;11.10;99.90;;;;;;5005711;28;20450;-56
2020/12/24 03:23:19;;;;;;;3.17;2.53;;;11.10;99.90;;;;;;5005921;28;20446;-56
2020/12/24 03:25:46;;;;;;;2.43;2.20;;;11.10;99.90;;;;;;5004959;28;20536;-52
2020/12/24 03:28:12;;;;;;;3.00;2.40;;;11.10;99.90;;;;;;5005263;28;20473;-54
2020/12/24 03:30:39;;;;;;;5.83;2.03;;;11.10;99.90;;;;;;5006415;28;20507;-52
2020/12/24 03:33:06;;;;;;;2.07;1.70;;;11.10;99.90;;;;;;5005623;28;20483;-52
2020/12/24 03:35:32;;;;;;;2.63;2.30;;;11.10;99.90;;;;;;5005295;28;20872;-54
2020/12/24 03:37:58;;;;;;;4.60;2.13;;;11.10;99.90;;;;;;5005590;28;20533;-51
2020/12/24 03:40:25;;;;;;;2.30;2.10;;;11.20;99.90;;;;;;5004702;28;20864;-51
2020/12/24 03:42:51;;;;;;;2.20;1.80;;;11.20;99.90;;;;;;5004320;28;20898;-56
2020/12/24 03:45:17;;;;;;;2.30;1.87;;;11.20;99.90;;;;;;5004946;28;20446;-51
2020/12/24 03:47:45;;;;;;;3.00;2.30;;;11.20;99.90;;;;;;5005435;28;20536;-53
2020/12/24 03:50:11;;;;;;;4.83;2.10;;;11.20;99.90;;;;;;5005236;28;20847;-53
2020/12/24 03:52:37;;;;;;;2.90;1.77;;;11.30;99.90;;;;;;5005114;28;20448;-53
2020/12/24 03:55:04;;;;;;;3.90;2.00;;;11.30;99.90;;;;;;5004964;28;20545;-51
2020/12/24 03:57:30;;;;;;;2.90;2.00;;;11.20;99.90;;;;;;5012758;23;20966;-50
2020/12/24 03:59:58;;;;;;;1.57;1.37;;;11.10;99.90;;;;;;5182199;23;20524;-55
2020/12/24 04:02:26;;;;;;;1.67;1.30;;;11.00;99.90;;;;;;5005657;28;20477;-53
2020/12/24 04:04:55;;;;;;;2.40;1.60;;;11.00;99.90;;;;;;5006547;28;20475;-47
2020/12/24 04:07:21;;;;;;;2.40;1.87;;;11.00;99.90;;;;;;5006048;28;20476;-49
2020/12/24 04:09:47;;;;;;;3.03;1.97;;;11.00;99.90;;;;;;5005361;28;20535;-51
2020/12/24 04:12:14;;;;;;;4.30;3.30;;;11.10;99.90;;;;;;5004757;28;20466;-57
2020/12/24 04:14:40;;;;;;;2.50;1.90;;;11.10;99.90;;;;;;5006161;28;20481;-51
2020/12/24 04:17:06;;;;;;;4.87;1.40;;;11.10;99.90;;;;;;5006292;28;20502;-52
2020/12/24 04:19:33;;;;;;;4.87;1.67;;;11.10;99.90;;;;;;5005470;28;20517;-51
2020/12/24 04:22:00;;;;;;;2.00;1.33;;;11.10;99.90;;;;;;5006087;28;20512;-51
2020/12/24 04:24:26;;;;;;;1.43;1.27;;;11.10;99.90;;;;;;5005316;28;20521;-48
2020/12/24 04:26:55;;;;;;;1.70;1.37;;;11.10;99.90;;;;;;5005316;28;20554;-50
2020/12/24 04:29:22;;;;;;;2.67;1.90;;;11.10;99.90;;;;;;5005058;28;20446;-56
2020/12/24 04:31:48;;;;;;;2.70;1.97;;;11.00;99.90;;;;;;5005337;28;20536;-55
2020/12/24 04:34:15;;;;;;;1.83;1.47;;;11.00;99.90;;;;;;5004446;28;20485;-52
2020/12/24 04:36:41;;;;;;;1.97;1.40;;;11.00;99.90;;;;;;5005312;28;20565;-56
2020/12/24 04:39:08;;;;;;;1.90;1.60;;;10.90;99.90;;;;;;5004446;28;20541;-53
2020/12/24 04:41:35;;;;;;;2.17;1.20;;;10.90;99.90;;;;;;5003970;28;20527;-55
2020/12/24 04:44:02;;;;;;;5.20;1.50;;;10.90;99.90;;;;;;5004406;28;20903;-54
2020/12/24 04:46:29;;;;;;;2.50;1.70;;;10.80;99.90;;;;;;5004735;28;20767;-51
2020/12/24 04:48:57;;;;;;;1.30;1.20;;;10.80;99.90;;;;;;5005074;28;20520;-56
2020/12/24 04:51:25;;;;;;;5.20;1.60;;;10.80;99.90;;;;;;5004872;28;20489;-53
2020/12/24 04:53:51;;;;;;;2.03;1.57;;;10.80;99.90;;;;;;5004659;28;20457;-54
2020/12/24 04:56:19;;;;;;;1.43;1.20;;;10.80;99.90;;;;;;5004756;28;20529;-55
2020/12/24 04:58:45;;;;;;;1.97;1.80;;;10.80;99.90;;;;;;5004560;28;20533;-54
2020/12/24 05:01:17;;;;;;;3.60;2.00;;;10.80;99.90;;;;;;5004221;28;20835;-52
2020/12/24 05:03:44;;;;;;;2.13;1.30;;;10.80;99.90;;;;;;5003757;28;20538;-55
2020/12/24 05:06:15;;;;;;;1.70;1.30;;;10.80;99.90;;;;;;5003637;28;20450;-52
2020/12/24 05:08:50;;;;;;;1.90;1.23;;;10.80;99.90;;;;;;5003627;28;20458;-53
2020/12/24 05:11:22;;;;;;;2.50;1.37;;;10.80;99.90;;;;;;5003483;28;20442;-51
2020/12/24 05:13:49;;;;;;;1.20;0.90;;;10.80;99.90;;;;;;5003347;28;20461;-53
2020/12/24 05:16:15;;;;;;;2.33;1.10;;;10.80;99.90;;;;;;5004065;28;20466;-53
2020/12/24 05:18:42;;;;;;;2.33;1.10;;;10.90;99.90;;;;;;5004099;28;20529;-55
2020/12/24 05:21:09;;;;;;;2.87;1.10;;;10.90;99.90;;;;;;5003895;28;20457;-56
2020/12/24 05:23:35;;;;;;;2.20;1.07;;;10.90;99.90;;;;;;5004112;28;20533;-56
2020/12/24 05:26:18;;;;;;;2.63;1.30;;;10.90;99.90;;;;;;5004411;28;20434;-56
2020/12/24 05:28:44;;;;;;;2.13;1.30;;;10.80;99.90;;;;;;5004070;28;20868;-52
2020/12/24 05:31:12;;;;;;;1.57;1.17;;;10.80;99.90;;;;;;5003848;28;20497;-53
2020/12/24 05:33:38;;;;;;;4.17;1.43;;;10.80;99.90;;;;;;5003972;28;20486;-52
2020/12/24 05:36:15;;;;;;;2.43;1.20;;;10.80;99.90;;;;;;5004602;28;20513;-52
2020/12/24 05:38:42;;;;;;;3.57;1.43;;;10.80;99.90;;;;;;5006026;28;20492;-53
2020/12/24 05:41:30;;;;;;;1.53;1.20;;;10.70;99.90;;;;;;5004805;28;20484;-52
2020/12/24 05:43:58;;;;;;;3.83;1.40;;;10.70;99.90;;;;;;5004442;28;20505;-52
2020/12/24 05:46:27;;;;;;;4.70;1.40;;;10.70;99.90;;;;;;5004495;28;20454;-48
2020/12/24 05:48:54;;;;;;;2.20;1.60;;;10.60;99.90;;;;;;5003785;28;20528;-55
2020/12/24 05:51:20;;;;;;;2.80;1.80;;;10.60;99.90;;;;;;5004501;28;20470;-51
2020/12/24 05:53:47;;;;;;;2.53;1.77;;;10.60;99.90;;;;;;4999856;28;21023;-52
2020/12/24 05:56:21;;;;;;;2.37;1.30;;;10.50;99.90;;;;;;4998683;28;20507;-52
2020/12/24 05:58:48;;;;;;;4.80;1.70;;;10.50;99.90;;;;;;4998686;28;20456;-53
2020/12/24 06:01:16;;;;;;;2.17;1.53;;;10.50;99.90;;;;;;4999202;28;20497;-52
2020/12/24 06:04:00;;;;;;;3.30;1.50;;;10.50;99.90;;;;;;4998856;28;20472;-54
2020/12/24 06:06:43;;;;;;;7.30;1.80;;;10.60;99.90;;;;;;4998963;28;20423;-54
2020/12/24 06:09:13;;;;;;;4.80;1.30;;;10.50;99.90;;;;;;4999288;28;20446;-56
2020/12/24 06:11:45;;;;;;;3.17;1.20;;;10.60;99.90;;;;;;4999828;28;20881;-56
2020/12/24 06:14:15;;;;;;;3.53;1.93;;;10.60;99.90;;;;;;5003952;28;20440;-55
2020/12/24 06:16:45;;;;;;;2.27;1.57;;;10.60;99.90;;;;;;5003856;28;20521;-54
2020/12/24 06:19:14;;;;;;;3.57;1.70;;;10.60;99.90;;;;;;5002715;28;20497;-55
2020/12/24 06:21:42;;;;;;;2.30;1.27;;;10.60;99.90;;;;;;5003530;28;20450;-54
2020/12/24 06:24:10;;;;;;;1.37;1.03;;;10.60;99.90;;;;;;5003951;28;20446;-54
2020/12/24 06:26:41;;;;;;;2.20;1.33;;;10.50;99.90;;;;;;5003342;28;20472;-50
2020/12/24 06:29:09;;;;;;;5.07;1.63;;;10.50;99.90;;;;;;5003522;28;20518;-47
2020/12/24 06:31:41;;;;;;;4.13;1.50;;;10.40;99.90;;;;;;5004212;28;20446;-49
2020/12/24 06:34:22;;;;;;;3.20;1.37;;;10.40;99.90;;;;;;5003896;28;20465;-55
2020/12/24 06:36:49;;;;;;;3.20;1.90;;;10.30;99.90;;;;;;5002897;28;20550;-54
2020/12/24 06:39:41;;;;;;;3.73;1.20;;;10.30;99.90;;;;;;5003659;28;20943;-52
2020/12/24 06:42:32;;;;;;;3.03;1.30;;;10.20;99.90;;;;;;5004710;28;20476;-54
2020/12/24 06:44:58;;;;;;;1.70;1.00;;;10.20;99.90;;;;;;5004520;28;20939;-56
2020/12/24 06:47:25;;;;;;;4.00;1.33;;;10.10;99.90;;;;;;5004854;28;20452;-54
2020/12/24 06:49:52;;;;;;;6.57;1.03;;;10.10;99.90;;;;;;5004072;28;20904;-56
2020/12/24 06:52:28;;;;;;;2.07;1.23;;;10.00;99.90;;;;;;5004257;28;20473;-50
2020/12/24 06:55:13;;;;;;;2.80;1.03;;;10.00;99.90;;;;;;5004294;28;20450;-55
2020/12/24 06:57:42;;;;;;;3.23;1.20;;;10.00;99.90;;;;;;5005022;28;20445;-53
2020/12/24 07:00:23;;;;;;;3.63;1.40;;;9.90;99.90;;;;;;5003499;28;20490;-56
2020/12/24 07:02:52;;;;;;;1.83;1.20;;;9.90;99.90;;;;;;5004444;28;20454;-55
2020/12/24 07:05:43;;;;;;;2.73;1.10;;;9.90;99.90;;;;;;5004343;28;20468;-54
2020/12/24 07:08:10;;;;;;;9.57;1.47;;;9.80;99.90;;;;;;5004286;28;20446;-49
2020/12/24 07:10:44;;;;;;;3.20;1.50;;;9.80;99.90;;;;;;5005620;28;20540;-54
2020/12/24 07:13:33;;;;;;;4.53;1.67;;;9.70;99.90;;;;;;5002210;28;20485;-54
2020/12/24 07:15:59;;;;;;;2.63;1.30;;;9.70;99.90;;;;;;5003362;28;20552;-52
2020/12/24 07:18:27;;;;;;;5.53;1.57;;;9.60;99.90;;;;;;5004073;28;21060;-55
2020/12/24 07:20:58;;;;;;;4.70;1.63;;;9.60;99.90;;;;;;5006986;28;20532;-51
2020/12/24 07:23:29;;;;;;;5.43;1.53;;;9.60;99.90;;;;;;5002942;28;20481;-48
2020/12/24 07:25:57;;;;;;;1.50;1.30;;;9.60;99.90;;;;;;4999461;28;20454;-50
2020/12/24 07:28:32;;;;;;;7.43;1.47;;;9.50;99.90;;;;;;5000359;28;20538;-56
2020/12/24 07:31:00;;;;;;;5.20;1.40;;;9.50;99.90;;;;;;5004953;28;20762;-50
2020/12/24 07:33:27;;;;;;;2.80;1.13;;;9.50;99.90;;;;;;5010395;28;20456;-56
2020/12/24 07:35:55;;;;;;;3.50;1.70;;;9.50;99.90;;;;;;5005632;28;20446;-57
2020/12/24 07:38:22;;;;;;;1.83;1.23;;;9.50;99.90;;;;;;4999341;28;20454;-56
2020/12/24 07:40:49;;;;;;;4.87;1.40;;;9.50;99.90;;;;;;5012488;28;20473;-54
2020/12/24 07:43:15;;;;;;;3.83;1.50;;;9.40;99.90;;;;;;5006939;28;20461;-55
2020/12/24 07:45:43;;;;;;;3.13;1.40;;;9.40;99.90;;;;;;5014504;28;20533;-54
2020/12/24 07:48:13;;;;;;;3.60;1.17;;;9.40;99.90;;;;;;5016808;28;20861;-52
2020/12/24 07:50:40;;;;;;;2.70;1.17;;;9.30;99.90;;;;;;5006371;28;20507;-55
2020/12/24 07:53:09;;;;;;;6.93;1.63;;;9.30;99.90;;;;;;5010599;28;20552;-52
2020/12/24 07:55:35;;;;;;;6.63;1.63;;;9.30;99.90;;;;;;5013814;28;20492;-55
2020/12/24 07:58:08;;;;;;;3.37;1.23;;;9.30;99.90;;;;;;5004849;28;20957;-52
2020/12/24 08:00:47;;;;;;;4.30;1.57;;;9.30;99.90;;;;;;4998629;28;20489;-49
2020/12/24 08:03:15;;;;;;;15.70;2.30;;;9.30;99.90;;;;;;5015441;28;20481;-55
2020/12/24 08:05:42;;;;;;;4.93;1.67;;;9.30;99.90;;;;;;4993944;28;20466;-55
2020/12/24 08:08:09;;;;;;;11.30;1.47;;;9.40;99.90;;;;;;5016483;28;20527;-54
2020/12/24 08:10:40;;;;;;;2.83;1.70;;;9.50;99.90;;;;;;5012008;28;20455;-55
2020/12/24 08:13:07;;;;;;;4.93;1.10;;;9.50;99.90;;;;;;5020987;28;20775;-52
2020/12/24 08:15:35;;;;;;;6.73;1.47;;;9.50;99.90;;;;;;5016938;28;20533;-56
2020/12/24 08:18:02;;;;;;;2.13;1.10;;;9.50;99.90;;;;;;5016913;28;20529;-49
2020/12/24 08:20:38;;;;;;;5.83;1.97;;;9.50;99.90;;;;;;5000030;28;20481;-51
2020/12/24 08:23:10;;;;;;;3.00;1.60;;;9.50;99.90;;;;;;4999744;28;20454;-56
2020/12/24 08:25:37;;;;;;;4.47;1.60;;;9.50;99.90;;;;;;5002768;28;20493;-48
2020/12/24 08:28:04;;;;;;;5.03;1.97;;;9.50;99.90;;;;;;5007663;28;20470;-54
2020/12/24 08:30:31;;;;;;;5.70;1.73;;;9.50;99.90;;;;;;5001123;28;20847;-52
2020/12/24 08:32:59;;;;;;;1.20;0.97;;;9.50;99.90;;;;;;5000628;28;20950;-53
2020/12/24 08:35:30;;;;;;;14.57;1.60;;;9.50;99.90;;;;;;5001335;28;20454;-51
2020/12/24 08:38:11;;;;;;;4.13;3.10;;;9.50;99.90;;;;;;5000560;28;20537;-54
2020/12/24 08:40:37;;;;;;;4.57;1.37;;;9.50;99.90;;;;;;5000181;28;20569;-51
2020/12/24 08:43:07;;;;;;;3.73;2.20;;;9.50;99.90;;;;;;5000138;28;20546;-54
2020/12/24 08:45:33;;;;;;;5.43;1.40;;;9.50;99.90;;;;;;5000901;28;20454;-55
2020/12/24 08:48:00;;;;;;;6.40;1.63;;;9.40;99.90;;;;;;5000348;28;20537;-56
2020/12/24 08:50:31;;;;;;;4.17;1.40;;;9.40;99.90;;;;;;5000798;28;20486;-57
2020/12/24 08:52:57;;;;;;;5.37;1.80;;;9.50;99.90;;;;;;4999815;28;20538;-56
2020/12/24 08:55:28;;;;;;;2.57;1.43;;;9.50;99.90;;;;;;5002676;28;20466;-53
2020/12/24 08:57:55;;;;;;;5.03;2.00;;;9.50;99.90;;;;;;5002547;28;20460;-54
2020/12/24 09:00:24;;;;;;;4.70;1.80;;;9.50;99.90;;;;;;5004310;28;20489;-52
2020/12/24 09:02:51;;;;;;;6.47;1.27;;;9.40;99.90;;;;;;5001114;28;20541;-50
2020/12/24 09:05:22;;;;;;;6.90;1.50;;;9.40;99.90;;;;;;5007825;28;20445;-53
2020/12/24 09:07:49;;;;;;;2.50;1.97;;;9.30;99.90;;;;;;5005414;28;20465;-53
2020/12/24 09:10:17;;;;;;;23.53;10.00;;;9.30;99.90;;;;;;4999050;28;20533;-55
2020/12/24 09:12:45;;;;;;;5.43;1.70;;;9.30;99.90;;;;;;5000116;28;21022;-52
2020/12/24 09:15:14;;;;;;;3.90;1.43;;;9.30;99.90;;;;;;5005738;28;20453;-52
2020/12/24 09:17:49;;;;;;;4.57;1.80;;;9.30;99.90;;;;;;5005099;28;20513;-52
2020/12/24 09:20:22;;;;;;;4.03;1.80;;;9.30;99.90;;;;;;4999226;28;20500;-53
2020/12/24 09:22:50;;;;;;;2.30;1.30;;;9.30;99.90;;;;;;5004599;28;20461;-52
2020/12/24 09:25:33;;;;;;;4.03;1.57;;;9.30;99.90;;;;;;5006071;28;20512;-52
2020/12/24 09:28:01;;;;;;;5.03;1.97;;;9.40;99.90;;;;;;5007557;28;20473;-51
2020/12/24 09:30:28;;;;;;;8.47;1.70;;;9.40;99.90;;;;;;5007013;28;20511;-49
2020/12/24 09:32:56;;;;;;;2.70;1.60;;;9.40;99.90;;;;;;5006260;28;20541;-51
2020/12/24 09:35:27;;;;;;;5.00;1.83;;;9.40;99.90;;;;;;5001367;28;20593;-53
2020/12/24 09:37:54;;;;;;;7.80;1.43;;;9.40;99.90;;;;;;4996048;28;20936;-56
2020/12/24 09:40:21;;;;;;;9.90;1.70;;;9.40;99.90;;;;;;4995547;28;20518;-55
2020/12/24 12:27:48;;;;;;;1.00;0.70;;;7.40;99.90;;;;;;6107194;23;20369;31
2020/12/24 12:30:14;;;;;;;1.50;0.63;;;7.30;99.90;;;;;;4971697;29;20494;-47
2020/12/24 12:32:41;;;;;;;1.00;0.70;;;7.20;99.90;;;;;;4967946;28;20459;-53
2020/12/24 12:35:08;;;;;;;1.20;0.80;;;7.20;99.90;;;;;;4952071;29;20959;-51
2020/12/24 12:37:35;;;;;;;7.50;0.93;;;7.20;99.90;;;;;;4952279;29;20505;-52
2020/12/24 12:40:01;;;;;;;3.33;0.70;;;7.20;99.90;;;;;;4958179;29;20571;-48
2020/12/24 12:42:27;;;;;;;2.00;1.00;;;7.20;99.90;;;;;;4957268;29;20550;-52
2020/12/24 12:44:55;;;;;;;1.93;0.70;;;7.20;99.90;;;;;;4953061;29;20512;-52
2020/12/24 12:47:21;;;;;;;0.90;0.70;;;7.20;99.90;;;;;;4957887;29;20850;-49
2020/12/24 12:49:48;;;;;;;2.07;0.77;;;7.20;99.90;;;;;;4949755;29;20528;-56
2020/12/24 12:52:14;;;;;;;1.13;0.70;;;7.20;99.90;;;;;;4955999;29;20543;-56
2020/12/24 12:54:41;;;;;;;1.00;0.70;;;7.10;99.90;;;;;;4952371;29;20441;-56
2020/12/24 12:57:07;;;;;;;0.90;0.70;;;7.00;99.90;;;;;;4952927;29;20495;-53
2020/12/24 12:59:33;;;;;;;2.70;0.93;;;7.00;99.90;;;;;;4952889;29;20890;-56
2020/12/24 13:02:00;;;;;;;1.23;0.60;;;6.80;99.90;;;;;;4952629;29;20492;-54
2020/12/24 13:04:27;;;;;;;2.60;0.80;;;6.70;99.90;;;;;;4951081;29;20466;-56
2020/12/24 13:06:53;;;;;;;1.50;0.70;;;6.70;99.90;;;;;;4950307;29;20539;-51
2020/12/24 13:09:19;;;;;;;1.20;0.70;;;6.60;99.90;;;;;;4944947;29;20988;-53
2020/12/24 13:11:47;;;;;;;1.47;0.80;;;6.50;99.90;;;;;;4949141;29;20487;-54
2020/12/24 13:14:18;;;;;;;1.63;0.93;;;6.30;99.90;;;;;;4941751;29;20822;-55
2020/12/24 13:16:46;;;;;;;1.00;0.70;;;6.20;99.90;;;;;;4950034;29;20451;-53
2020/12/24 13:19:13;;;;;;;1.30;0.70;;;6.20;99.90;;;;;;4957861;29;20495;-50
2020/12/24 13:21:39;;;;;;;0.90;0.60;;;6.10;99.90;;;;;;4963901;29;20449;-52
2020/12/24 13:24:06;;;;;;;1.20;0.60;;;6.00;99.90;;;;;;4965757;29;20457;-50
2020/12/24 13:26:32;;;;;;;1.20;0.67;;;5.90;99.90;;;;;;4959465;29;20529;-50
2020/12/24 13:28:59;;;;;;;1.33;0.87;;;5.90;99.90;;;;;;4975782;28;20467;-47
2020/12/24 13:31:25;;;;;;;1.33;0.90;;;5.80;99.90;;;;;;4980585;28;20424;-47
2020/12/24 13:33:53;;;;;;;1.10;0.70;;;5.70;99.90;;;;;;4984363;28;20482;-49
2020/12/24 13:36:20;;;;;;;1.30;0.90;;;5.70;99.90;;;;;;4986228;28;20482;-49
2020/12/24 13:38:47;;;;;;;1.40;0.90;;;5.60;99.90;;;;;;4977932;28;20506;-49
2020/12/24 13:41:14;;;;;;;1.20;0.80;;;5.60;99.90;;;;;;4978561;28;20976;-54
2020/12/24 13:43:40;;;;;;;1.83;1.20;;;5.50;99.90;;;;;;4977212;28;20454;-47
2020/12/24 13:46:08;;;;;;;1.80;1.30;;;5.50;99.90;;;;;;4986393;28;20447;-50
2020/12/24 13:48:35;;;;;;;2.00;1.40;;;5.40;99.90;;;;;;4971978;28;20458;-52
2020/12/24 13:51:01;;;;;;;1.20;1.10;;;5.40;99.90;;;;;;4985076;28;20514;-54
2020/12/24 13:53:28;;;;;;;1.30;1.00;;;5.30;99.90;;;;;;4991244;28;20447;-53
2020/12/24 13:55:55;;;;;;;1.13;0.87;;;5.30;99.90;;;;;;4976984;28;20463;-56
2020/12/24 13:58:21;;;;;;;1.17;0.60;;;5.30;99.90;;;;;;4977871;28;20531;-59
2020/12/24 14:00:50;;;;;;;1.00;0.77;;;5.30;99.90;;;;;;4984681;28;20467;-57
2020/12/24 14:03:16;;;;;;;1.23;1.10;;;5.30;99.90;;;;;;4979231;28;20440;-58
2020/12/24 14:05:42;;;;;;;1.50;1.07;;;5.30;99.90;;;;;;4974981;28;20467;-60
2020/12/24 14:08:09;;;;;;;1.17;0.80;;;5.20;99.90;;;;;;4974198;28;20494;-55
2020/12/24 14:10:38;;;;;;;2.40;0.90;;;5.20;99.90;;;;;;4969954;28;20528;-56
2020/12/24 14:13:05;;;;;;;1.13;0.80;;;5.20;99.90;;;;;;4974569;28;20440;-57
2020/12/24 14:15:31;;;;;;;2.30;1.70;;;5.20;99.90;;;;;;4983214;28;20476;-56
2020/12/24 14:17:58;;;;;;;3.13;1.93;;;5.20;99.90;;;;;;4979718;28;20447;-56
2020/12/24 14:20:25;;;;;;;2.73;2.00;;;5.10;99.90;;;;;;4985938;28;20502;-57
2020/12/24 14:22:51;;;;;;;7.40;2.10;;;5.20;99.90;;;;;;4987595;28;20454;-56
2020/12/24 14:25:18;;;;;;;2.60;1.10;;;5.20;99.90;;;;;;4985327;28;20463;-58
2020/12/24 14:27:45;;;;;;;1.67;1.30;;;5.20;99.90;;;;;;4973908;28;20766;-52
2020/12/24 14:30:12;;;;;;;1.50;1.17;;;5.30;99.90;;;;;;4987495;28;20535;-58
2020/12/24 14:32:38;;;;;;;0.90;0.80;;;5.30;99.90;;;;;;4983688;28;20451;-52
2020/12/24 14:35:05;;;;;;;2.33;0.87;;;5.30;99.90;;;;;;4975248;28;20467;-56
2020/12/24 14:37:31;;;;;;;1.50;1.10;;;5.30;99.90;;;;;;4984740;28;20499;-57
2020/12/24 14:39:57;;;;;;;1.60;1.13;;;5.30;99.90;;;;;;4987349;28;20907;-52
2020/12/24 14:42:24;;;;;;;1.53;1.20;;;5.30;99.90;;;;;;4984379;28;20482;-55
2020/12/24 14:44:51;;;;;;;2.33;1.37;;;5.30;99.90;;;;;;4980952;28;20819;-58
2020/12/24 14:47:17;;;;;;;1.40;1.10;;;5.40;99.90;;;;;;4976029;28;20431;-55
2020/12/24 14:49:45;;;;;;;1.97;1.40;;;5.40;99.90;;;;;;4980296;28;20523;-57
2020/12/24 14:52:12;;;;;;;2.17;1.57;;;5.40;99.90;;;;;;4978089;28;20446;-56
2020/12/24 14:54:38;;;;;;;1.87;1.00;;;5.40;99.90;;;;;;4985351;28;20519;-57
2020/12/24 14:57:04;;;;;;;1.60;1.50;;;5.40;99.90;;;;;;4977361;28;20496;-56
2020/12/24 14:59:31;;;;;;;1.90;1.43;;;5.50;99.90;;;;;;4973740;28;20471;-57
2020/12/24 15:01:58;;;;;;;2.10;1.40;;;5.50;99.90;;;;;;4981682;28;20456;-55
2020/12/24 15:04:24;;;;;;;1.20;1.00;;;5.50;99.90;;;;;;4977061;28;20443;-58
2020/12/24 15:06:52;;;;;;;1.50;1.10;;;5.40;99.90;;;;;;4976500;28;20471;-56
2020/12/24 15:09:18;;;;;;;1.30;0.90;;;5.40;99.90;;;;;;4990882;28;20471;-57
2020/12/24 15:11:45;;;;;;;1.47;1.00;;;5.40;99.90;;;;;;4978260;28;20435;-57
2020/12/24 15:14:11;;;;;;;1.67;1.17;;;5.30;99.90;;;;;;4987486;28;20443;-52
2020/12/24 15:16:38;;;;;;;2.37;1.20;;;5.30;99.90;;;;;;4991347;28;20470;-57
2020/12/24 15:19:05;;;;;;;1.33;0.97;;;5.30;99.90;;;;;;4994181;28;20468;-56
2020/12/24 15:21:32;;;;;;;1.60;1.23;;;5.30;99.90;;;;;;4990595;28;20591;-58
2020/12/24 15:23:58;;;;;;;1.93;1.30;;;5.30;99.90;;;;;;4981940;28;20463;-53
2020/12/24 15:26:24;;;;;;;1.63;1.37;;;5.40;99.90;;;;;;4983633;28;20447;-56
2020/12/24 15:29:03;;;;;;;1.90;1.13;;;5.40;99.90;;;;;;4988825;28;20506;-58
2020/12/24 15:31:29;;;;;;;1.83;1.37;;;5.40;99.90;;;;;;4973184;28;20438;-57
2020/12/24 15:33:56;;;;;;;1.83;1.30;;;5.40;99.90;;;;;;4970986;28;20459;-58
2020/12/24 15:36:23;;;;;;;1.87;1.60;;;5.40;99.90;;;;;;4983697;28;20451;-58
2020/12/24 15:38:49;;;;;;;3.03;1.87;;;5.40;99.90;;;;;;4987324;28;20475;-54